GPLOP EGBD-EGBD

Flight info

Callsign GPLOP
Flight time 0h 36m
Altitude 1500
Route VFR
Aircraft C172/L-V/N

Departure

Time 2026-05-04 19:27
Airport Derby Airfield (EGBD)

Arrival

Time 2026-05-04 20:04
Airport Derby Airfield (EGBD)
Time Latitude Longitude Altitude Speed Heading
2026-05-04 19:27 52.87201 -1.56048 751 ft 98 kts 75°
2026-05-04 19:27 52.87413 -1.54970 804 ft 99 kts 75°
2026-05-04 19:27 52.87604 -1.53876 853 ft 99 kts 87°
2026-05-04 19:28 52.87627 -1.52746 907 ft 99 kts 89°
2026-05-04 19:28 52.87661 -1.51615 958 ft 98 kts 90°
2026-05-04 19:28 52.87692 -1.50425 976 ft 109 kts 90°
2026-05-04 19:28 52.87720 -1.49158 1022 ft 111 kts 90°
2026-05-04 19:29 52.87749 -1.47886 1071 ft 110 kts 90°
2026-05-04 19:29 52.87779 -1.46617 1120 ft 110 kts 90°
2026-05-04 19:29 52.87807 -1.45438 1165 ft 110 kts 90°
2026-05-04 19:29 52.87838 -1.44171 1216 ft 110 kts 90°
2026-05-04 19:30 52.87869 -1.42907 1264 ft 110 kts 90°
2026-05-04 19:30 52.87900 -1.41642 1315 ft 110 kts 91°
2026-05-04 19:30 52.87932 -1.40380 1365 ft 110 kts 90°
2026-05-04 19:30 52.87963 -1.39113 1415 ft 110 kts 90°
2026-05-04 19:31 52.87994 -1.37842 1466 ft 110 kts 90°
2026-05-04 19:31 52.88024 -1.36570 1497 ft 112 kts 91°
2026-05-04 19:31 52.88054 -1.35264 1500 ft 114 kts 91°
2026-05-04 19:31 52.88083 -1.33939 1502 ft 116 kts 91°
2026-05-04 19:32 52.88112 -1.32603 1503 ft 116 kts 90°
2026-05-04 19:32 52.88141 -1.31259 1503 ft 117 kts 91°
2026-05-04 19:32 52.88171 -1.29935 1502 ft 117 kts 90°
2026-05-04 19:32 52.88200 -1.28592 1502 ft 117 kts 90°
2026-05-04 19:33 52.88230 -1.27249 1502 ft 117 kts 90°
2026-05-04 19:33 52.88261 -1.25901 1502 ft 117 kts 90°
2026-05-04 19:33 52.88290 -1.24554 1502 ft 117 kts 90°
2026-05-04 19:33 52.88321 -1.23206 1502 ft 117 kts 90°
2026-05-04 19:34 52.88438 -1.21877 1486 ft 120 kts 64°
2026-05-04 19:34 52.88915 -1.20752 1502 ft 120 kts 58°
2026-05-04 19:34 52.89396 -1.19622 1503 ft 120 kts 58°
2026-05-04 19:34 52.89880 -1.18492 1503 ft 120 kts 58°
2026-05-04 19:35 52.90363 -1.17363 1502 ft 120 kts 58°
2026-05-04 19:35 52.90846 -1.16236 1501 ft 120 kts 58°
2026-05-04 19:35 52.91329 -1.15109 1501 ft 120 kts 58°
2026-05-04 19:35 52.91805 -1.13997 1500 ft 120 kts 58°
2026-05-04 19:36 52.92454 -1.13174 1492 ft 124 kts 11°
2026-05-04 19:36 52.93325 -1.13172 1500 ft 124 kts
2026-05-04 19:36 52.94111 -1.13591 1492 ft 124 kts 313°
2026-05-04 19:36 52.94571 -1.14792 1497 ft 123 kts 295°
2026-05-04 19:37 52.94527 -1.16124 1496 ft 118 kts 235°
2026-05-04 19:37 52.94033 -1.17209 1504 ft 118 kts 231°
2026-05-04 19:37 52.93533 -1.18293 1505 ft 118 kts 231°
2026-05-04 19:37 52.93032 -1.19376 1505 ft 119 kts 231°
2026-05-04 19:38 52.92530 -1.20460 1504 ft 119 kts 231°
2026-05-04 19:38 52.92027 -1.21545 1503 ft 119 kts 231°
2026-05-04 19:38 52.91493 -1.22649 1394 ft 124 kts 221°
2026-05-04 19:38 52.90706 -1.23015 1382 ft 118 kts 180°
2026-05-04 19:39 52.89889 -1.23053 1383 ft 117 kts 181°
2026-05-04 19:39 52.89079 -1.23082 1382 ft 116 kts 180°
2026-05-04 19:39 52.88278 -1.23111 1381 ft 116 kts 181°
2026-05-04 19:39 52.87474 -1.23141 1381 ft 115 kts 180°
2026-05-04 19:40 52.86700 -1.23395 1386 ft 116 kts 217°
2026-05-04 19:40 52.86420 -1.24621 1403 ft 120 kts 267°
2026-05-04 19:40 52.86379 -1.26006 1399 ft 121 kts 265°
2026-05-04 19:40 52.86338 -1.27396 1398 ft 121 kts 265°
2026-05-04 19:41 52.86298 -1.28792 1397 ft 121 kts 265°
2026-05-04 19:41 52.86265 -1.30173 1398 ft 122 kts 269°
2026-05-04 19:41 52.86294 -1.31577 1397 ft 122 kts 270°
2026-05-04 19:41 52.86325 -1.32985 1397 ft 122 kts 271°
2026-05-04 19:42 52.86355 -1.34392 1398 ft 122 kts 270°
2026-05-04 19:42 52.86386 -1.35798 1397 ft 122 kts 271°
2026-05-04 19:42 52.86416 -1.37207 1397 ft 122 kts 269°
2026-05-04 19:42 52.86382 -1.38611 1395 ft 122 kts 265°
2026-05-04 19:43 52.86341 -1.40013 1396 ft 122 kts 266°
2026-05-04 19:43 52.86299 -1.41435 1394 ft 122 kts 266°
2026-05-04 19:43 52.86257 -1.42814 1393 ft 122 kts 265°
2026-05-04 19:43 52.85923 -1.44021 1380 ft 117 kts 212°
2026-05-04 19:44 52.85145 -1.44246 1389 ft 114 kts 180°
2026-05-04 19:44 52.84349 -1.44285 1392 ft 115 kts 180°
2026-05-04 19:44 52.83550 -1.44316 1391 ft 115 kts 180°
2026-05-04 19:44 52.82754 -1.44342 1391 ft 115 kts 181°
2026-05-04 19:45 52.81952 -1.44287 1382 ft 115 kts 161°
2026-05-04 19:45 52.81490 -1.43286 1377 ft 117 kts 98°
2026-05-04 19:45 52.81507 -1.41942 1386 ft 117 kts 91°
2026-05-04 19:45 52.81533 -1.40605 1393 ft 117 kts 91°
2026-05-04 19:46 52.81559 -1.39262 1390 ft 116 kts 93°
2026-05-04 19:46 52.81550 -1.37928 1391 ft 116 kts 92°
2026-05-04 19:46 52.81550 -1.36593 1390 ft 116 kts 92°
2026-05-04 19:46 52.81551 -1.35254 1391 ft 117 kts 92°
2026-05-04 19:47 52.81551 -1.33913 1391 ft 116 kts 92°
2026-05-04 19:47 52.81553 -1.32576 1391 ft 116 kts 93°
2026-05-04 19:47 52.81554 -1.31249 1391 ft 117 kts 92°
2026-05-04 19:47 52.81555 -1.29883 1392 ft 117 kts 93°
2026-05-04 19:48 52.81555 -1.28547 1392 ft 118 kts 92°
2026-05-04 19:48 52.81556 -1.27177 1390 ft 118 kts 92°
2026-05-04 19:48 52.81541 -1.25831 1388 ft 117 kts 103°
2026-05-04 19:48 52.81018 -1.24935 1395 ft 114 kts 168°
2026-05-04 19:49 52.80317 -1.25395 1399 ft 118 kts 233°
2026-05-04 19:49 52.80173 -1.26729 1398 ft 122 kts 269°
2026-05-04 19:49 52.80171 -1.28082 1397 ft 122 kts 269°
2026-05-04 19:49 52.80174 -1.29482 1396 ft 122 kts 269°
2026-05-04 19:50 52.80177 -1.30879 1395 ft 122 kts 269°
2026-05-04 19:50 52.80179 -1.32276 1395 ft 121 kts 269°
2026-05-04 19:50 52.80183 -1.33670 1396 ft 122 kts 269°
2026-05-04 19:50 52.80185 -1.35070 1395 ft 122 kts 269°
2026-05-04 19:51 52.80186 -1.36471 1395 ft 122 kts 269°
2026-05-04 19:51 52.80187 -1.37866 1392 ft 121 kts 268°
2026-05-04 19:51 52.80187 -1.39260 1393 ft 122 kts 269°
2026-05-04 19:51 52.80188 -1.40664 1395 ft 122 kts 268°
2026-05-04 19:52 52.80494 -1.41909 1391 ft 124 kts 323°
2026-05-04 19:52 52.81301 -1.42053 1401 ft 121 kts 28°
2026-05-04 19:52 52.81728 -1.40967 1398 ft 116 kts 90°
2026-05-04 19:52 52.81731 -1.39632 1398 ft 116 kts 92°
2026-05-04 19:53 52.81732 -1.38295 1399 ft 116 kts 92°
2026-05-04 19:53 52.81732 -1.36956 1397 ft 116 kts 92°
2026-05-04 19:53 52.81732 -1.36070 1398 ft 116 kts 92°
2026-05-04 19:53 52.81732 -1.34731 1398 ft 117 kts 93°
2026-05-04 19:54 52.81734 -1.33387 1398 ft 117 kts 92°
2026-05-04 19:54 52.81734 -1.32046 1398 ft 117 kts 92°
2026-05-04 19:54 52.81735 -1.30696 1398 ft 117 kts 92°
2026-05-04 19:54 52.81736 -1.29345 1399 ft 118 kts 92°
2026-05-04 19:55 52.81736 -1.27991 1398 ft 118 kts 92°
2026-05-04 19:55 52.81727 -1.26641 1396 ft 117 kts 100°
2026-05-04 19:55 52.81237 -1.25688 1399 ft 115 kts 165°
2026-05-04 19:55 52.80512 -1.26085 1404 ft 118 kts 230°
2026-05-04 19:56 52.80338 -1.27408 1399 ft 122 kts 268°
2026-05-04 19:56 52.80321 -1.28809 1399 ft 122 kts 268°
2026-05-04 19:56 52.80309 -1.30209 1398 ft 121 kts 268°
2026-05-04 19:56 52.80298 -1.31602 1400 ft 121 kts 268°
2026-05-04 19:57 52.80285 -1.32998 1398 ft 121 kts 268°
2026-05-04 19:57 52.80272 -1.34396 1398 ft 122 kts 268°
2026-05-04 19:57 52.80260 -1.35797 1397 ft 122 kts 268°
2026-05-04 19:57 52.80246 -1.37174 1396 ft 122 kts 268°
2026-05-04 19:58 52.80232 -1.38566 1397 ft 121 kts 268°
2026-05-04 19:58 52.80218 -1.39963 1397 ft 122 kts 268°
2026-05-04 19:58 52.80204 -1.41366 1398 ft 122 kts 268°
2026-05-04 19:58 52.80190 -1.42769 1398 ft 122 kts 268°
2026-05-04 19:59 52.80529 -1.44006 1395 ft 124 kts 326°
2026-05-04 19:59 52.81324 -1.44565 1398 ft 125 kts 339°
2026-05-04 19:59 52.82114 -1.45084 1400 ft 120 kts 339°
2026-05-04 19:59 52.82862 -1.45571 1393 ft 111 kts 339°
2026-05-04 20:00 52.83562 -1.46033 1386 ft 106 kts 339°
2026-05-04 20:00 52.84209 -1.46562 1382 ft 102 kts 322°
2026-05-04 20:00 52.84732 -1.47346 1376 ft 101 kts 306°
2026-05-04 20:00 52.84911 -1.48439 1387 ft 99 kts 279°
2026-05-04 20:01 52.85031 -1.49503 1414 ft 88 kts 276°
2026-05-04 20:01 52.85121 -1.50473 1388 ft 82 kts 276°
2026-05-04 20:01 52.85204 -1.51416 1339 ft 84 kts 276°
2026-05-04 20:01 52.85286 -1.52380 1250 ft 87 kts 276°
2026-05-04 20:02 52.85370 -1.53390 1140 ft 90 kts 276°
2026-05-04 20:02 52.85455 -1.54424 1019 ft 91 kts 276°
2026-05-04 20:02 52.85540 -1.55466 897 ft 92 kts 276°
2026-05-04 20:02 52.85624 -1.56511 774 ft 92 kts 276°
2026-05-04 20:03 52.85709 -1.57556 651 ft 92 kts 276°
2026-05-04 20:03 52.85793 -1.58597 529 ft 91 kts 276°
2026-05-04 20:03 52.85876 -1.59636 409 ft 90 kts 276°
2026-05-04 20:03 52.85958 -1.60638 282 ft 85 kts 276°
2026-05-04 20:04 52.86033 -1.61543 166 ft 69 kts 277°
2026-05-04 20:04 52.86107 -1.62014 162 ft 0 kts 92°